^^
Station Historical Data
Daily Summary for March 1, 2017 Units:  Metric    English   Both
« Previous Day
Next Day »
Daily Weekly Monthly Yearly Custom
  High: Low: Average:
Temperature: 35.4 °C 22.4 °C 27.7 °C
Dew Point: 19.5 °C 3.6 °C 12.5 °C
Humidity: 64% 26% 41%
Wind Speed: 27.4km/h 0km/h 4km/h
Wind Gust: 32.2km/h - -
Wind- - SE
Pressure: 1009 hPa 1004.6 hPa -
Precipitation: 0 mm    
Historical Graphs
 
 
Tabular Data for March 1, 2017
Time Temperature Dew Point Pressure Wind Wind Speed Wind Gust Humidity Rainfall Rate (Hourly) solar Conditions
04:38 23.9 °C 3.8 °C 1007.3 hPa Calm     27% 0 mm 0.0 W/m2
04:43 23.9 °C 3.8 °C 1007.7 hPa Calm     27% 0 mm 0.0 W/m2
04:53 23.7 °C 3.6 °C 1007.7 hPa Calm     27% 0 mm 0.0 W/m2
05:14 23.5 °C 3.9 °C 1007.7 hPa Calm     28% 0 mm 0.0 W/m2
05:29 23.3 °C 3.8 °C 1008 hPa Calm     28% 0 mm 0.0 W/m2
05:34 23.2 °C 4.2 °C 1008 hPa Calm     29% 0 mm 0.0 W/m2
05:44 23.1 °C 4.1 °C 1008.4 hPa Calm     29% 0 mm 0.0 W/m2
05:50 23 °C 4 °C 1008.4 hPa Calm     29% 0 mm 0.0 W/m2
05:55 22.8 °C 3.8 °C 1008.4 hPa Calm     29% 0 mm 0.0 W/m2
06:00 22.7 °C 3.7 °C 1008.4 hPa Calm     29% 0 mm 0.0 W/m2
06:05 22.6 °C 3.7 °C 1008.4 hPa Calm     29% 0 mm 0.0 W/m2
06:14 22.6 °C 3.7 °C 1008.4 hPa Calm     29% 0 mm 0.0 W/m2
06:26 22.4 °C 4 °C 1008.4 hPa Calm     30% 0 mm 0.0 W/m2
06:58 22.6 °C 4.1 °C 1009 hPa Calm     30% 0 mm 16.0 W/m2
07:04 22.7 °C 4.2 °C 1009 hPa Calm     30% 0 mm 23.0 W/m2
07:09 22.8 °C 4.8 °C 1009 hPa Calm     31% 0 mm 30.0 W/m2
07:12 22.8 °C 4.3 °C 1009 hPa Calm     30% 0 mm 39.0 W/m2
07:20 22.9 °C 4.4 °C 1009 hPa Calm     30% 0 mm 46.0 W/m2
07:40 23.7 °C 4.6 °C 1009 hPa Calm     29% 0 mm 72.0 W/m2
07:51 24.1 °C 5.4 °C 1009 hPa Calm     30% 0 mm 79.0 W/m2
07:57 24.3 °C 6.1 °C 1009 hPa Calm     31% 0 mm 83.0 W/m2
08:02 24.5 °C 6.3 °C 1009 hPa Calm     31% 0 mm 81.0 W/m2
08:08 24.8 °C 6.5 °C 1009 hPa Calm     31% 0 mm 132.0 W/m2
08:30 25.4 °C 6.6 °C 1009 hPa Calm     30% 0 mm 214.0 W/m2
08:39 26.7 °C 8.2 °C 1009 hPa Calm     31% 0 mm 376.0 W/m2
09:01 27.3 °C 10.1 °C 1009 hPa Calm     34% 0 mm 290.0 W/m2
09:10 27.5 °C 11.1 °C 1009 hPa Calm     36% 0 mm 478.0 W/m2
09:25 27.7 °C 12.5 °C 1008.7 hPa Calm     39% 0 mm 538.0 W/m2
09:47 28.4 °C 13.1 °C 1008.7 hPa SSW 1.4 km/h 3.2 km/h 39% 0 mm 592.0 W/m2
10:02 29 °C 14.8 °C 1008.7 hPa Calm     42% 0 mm 619.0 W/m2
10:11 29.3 °C 15.4 °C 1008.4 hPa Calm   3.2 km/h 43% 0 mm 657.0 W/m2
10:21 29.6 °C 15.3 °C 1008.4 hPa Calm     42% 0 mm 686.0 W/m2
10:41 29.9 °C 15.6 °C 1008.4 hPa WNW 9.7 km/h 24.1 km/h 42% 0 mm 721.0 W/m2
10:49 30.2 °C 15.5 °C 1008 hPa Calm     41% 0 mm 749.0 W/m2
16:41 35.3 °C 12.9 °C 1004.6 hPa NNE 9.7 km/h 9.7 km/h 26% 0 mm 357.0 W/m2
16:51 35.4 °C 13 °C 1004.6 hPa Calm     26% 0 mm 236.0 W/m2
17:00 35.3 °C 12.9 °C 1004.6 hPa Calm   8 km/h 26% 0 mm 153.0 W/m2
17:02 35.2 °C 13.4 °C 1004.6 hPa Calm     27% 0 mm 155.0 W/m2
17:10 35.4 °C 13.5 °C 1004.6 hPa Calm     27% 0 mm 404.0 W/m2
17:17 34.6 °C 15 °C 1004.6 hPa SW 25.9 km/h 29 km/h 31% 0 mm 163.0 W/m2
17:25 34 °C 15 °C 1004.6 hPa SW 22.7 km/h 30.6 km/h 32% 0 mm 494.0 W/m2
17:54 32.4 °C 14.5 °C 1005 hPa SSW 25.9 km/h 32.2 km/h 34% 0 mm 81.0 W/m2
18:04 32.2 °C 13.9 °C 1005 hPa SSW 27.4 km/h 30.6 km/h 33% 0 mm 67.0 W/m2
18:09 32.1 °C 13.8 °C 1005 hPa SSW 20.9 km/h 30.6 km/h 33% 0 mm 77.0 W/m2
18:15 32.1 °C 13.8 °C 1005 hPa SW 27.4 km/h 30.6 km/h 33% 0 mm 72.0 W/m2
18:24 32 °C 13.2 °C 1005 hPa SW 22.7 km/h 32.2 km/h 32% 0 mm 65.0 W/m2
18:39 31.9 °C 13.2 °C 1005.6 hPa SSW 16.3 km/h 20.9 km/h 32% 0 mm 37.0 W/m2
18:50 31.9 °C 13.2 °C 1006 hPa SSW 7.9 km/h 9.7 km/h 32% 0 mm 18.0 W/m2
19:00 31.2 °C 15.2 °C 1006 hPa East 20.9 km/h 22.5 km/h 38% 0 mm 9.0 W/m2
19:20 29.6 °C 16.4 °C 1006.3 hPa East 11.1 km/h 19.3 km/h 45% 0 mm 0.0 W/m2
19:25 29.5 °C 16 °C 1006.3 hPa East 16.3 km/h 20.9 km/h 44% 0 mm 0.0 W/m2
19:34 29.6 °C 15.7 °C 1006.3 hPa East 13 km/h 19.3 km/h 43% 0 mm 0.0 W/m2
19:40 29.7 °C 15.8 °C 1006.7 hPa East 3.2 km/h 12.9 km/h 43% 0 mm 0.0 W/m2
19:49 29.7 °C 15.4 °C 1006.7 hPa East 3.2 km/h 14.5 km/h 42% 0 mm 0.0 W/m2
19:54 29.7 °C 15 °C 1006.7 hPa East 14.3 km/h 14.5 km/h 41% 0 mm 0.0 W/m2
20:00 29.7 °C 15.4 °C 1006.7 hPa East 9.7 km/h 14.5 km/h 42% 0 mm 0.0 W/m2
20:05 29.7 °C 15.8 °C 1006.7 hPa ENE 9.7 km/h 19.3 km/h 43% 0 mm 0.0 W/m2
20:11 29.4 °C 15.9 °C 1006.7 hPa East 1.4 km/h 16.1 km/h 44% 0 mm 0.0 W/m2
20:18 29.3 °C 16.1 °C 1007 hPa Calm     45% 0 mm 0.0 W/m2
20:27 29.3 °C 16.1 °C 1007 hPa Calm     45% 0 mm 0.0 W/m2
20:34 29.2 °C 17.1 °C 1007 hPa Calm     48% 0 mm 0.0 W/m2
20:45 28.8 °C 16.4 °C 1007 hPa Calm     47% 0 mm 0.0 W/m2
20:59 28.6 °C 16.8 °C 1007.7 hPa ENE 4.7 km/h 12.9 km/h 49% 0 mm 0.0 W/m2
21:07 27.7 °C 18.4 °C 1007.7 hPa ENE 6.4 km/h 11.3 km/h 57% 0 mm 0.0 W/m2
21:09 27.2 °C 18.8 °C 1007.7 hPa Calm     60% 0 mm 0.0 W/m2
21:24 27.2 °C 19.5 °C 1008.4 hPa Calm     63% 0 mm 0.0 W/m2
21:32 27.5 °C 18.8 °C 1008.4 hPa Calm     59% 0 mm 0.0 W/m2
22:28 26.9 °C 18.7 °C 1008.4 hPa Calm     61% 0 mm 0.0 W/m2
22:33 26.7 °C 19.1 °C 1008.4 hPa Calm     63% 0 mm 0.0 W/m2
22:38 26.6 °C 19 °C 1008.4 hPa Calm     63% 0 mm 0.0 W/m2
22:43 26.5 °C 19.1 °C 1008.4 hPa Calm     64% 0 mm 0.0 W/m2
22:48 26.4 °C 19 °C 1008.4 hPa Calm     64% 0 mm 0.0 W/m2
22:54 26.6 °C 18.5 °C 1008 hPa Calm     61% 0 mm 0.0 W/m2
22:59 26.7 °C 18.3 °C 1008 hPa Calm     60% 0 mm 0.0 W/m2
23:05 26.8 °C 17.8 °C 1008 hPa Calm     58% 0 mm 0.0 W/m2
23:10 26.8 °C 18.6 °C 1007.7 hPa Calm     61% 0 mm 0.0 W/m2
23:16 26.8 °C 17 °C 1007.7 hPa Calm     55% 0 mm 0.0 W/m2
23:21 27.1 °C 17 °C 1007.7 hPa Calm     54% 0 mm 0.0 W/m2
23:30 27.3 °C 17.5 °C 1008 hPa Calm     55% 0 mm 0.0 W/m2
23:35 27.2 °C 17.4 °C 1008 hPa Calm     55% 0 mm 0.0 W/m2
23:40 27.2 °C 17.4 °C 1008 hPa Calm     55% 0 mm 0.0 W/m2
23:46 27.2 °C 17.1 °C 1008 hPa Calm     54% 0 mm 0.0 W/m2
23:51 27.2 °C 17.4 °C 1008 hPa Calm     55% 0 mm 0.0 W/m2
23:56 27.3 °C 16.9 °C 1008 hPa Calm     53% 0 mm 0.0 W/m2
Canyon Roadhouse, Fishriver Canyon, Namibia
Compliments of Weather Underground - 2 mb